sensor_id;sensor_type;location;lat;lon;timestamp;P1;durP1;ratioP1;P2;durP2;ratioP2
7398;SDS011;3740;50.700;7.184;2024-01-25T00:00:24;28.10;;;10.73;;
7398;SDS011;3740;50.700;7.184;2024-01-25T00:02:50;27.00;;;10.10;;
7398;SDS011;3740;50.700;7.184;2024-01-25T00:05:15;28.10;;;10.13;;
7398;SDS011;3740;50.700;7.184;2024-01-25T00:07:50;30.17;;;10.60;;
7398;SDS011;3740;50.700;7.184;2024-01-25T00:10:16;34.37;;;11.40;;
7398;SDS011;3740;50.700;7.184;2024-01-25T00:12:42;32.63;;;11.00;;
7398;SDS011;3740;50.700;7.184;2024-01-25T00:15:08;29.20;;;10.23;;
7398;SDS011;3740;50.700;7.184;2024-01-25T00:17:35;32.03;;;10.40;;
7398;SDS011;3740;50.700;7.184;2024-01-25T00:20:01;26.83;;;9.70;;
7398;SDS011;3740;50.700;7.184;2024-01-25T00:22:27;30.97;;;10.07;;
7398;SDS011;3740;50.700;7.184;2024-01-25T00:24:53;25.33;;;9.93;;
7398;SDS011;3740;50.700;7.184;2024-01-25T00:27:18;31.87;;;11.27;;
7398;SDS011;3740;50.700;7.184;2024-01-25T00:29:44;33.77;;;11.30;;
7398;SDS011;3740;50.700;7.184;2024-01-25T00:32:09;35.00;;;11.03;;
7398;SDS011;3740;50.700;7.184;2024-01-25T00:34:35;32.63;;;10.07;;
7398;SDS011;3740;50.700;7.184;2024-01-25T00:37:01;35.27;;;10.40;;
7398;SDS011;3740;50.700;7.184;2024-01-25T00:39:27;30.80;;;10.57;;
7398;SDS011;3740;50.700;7.184;2024-01-25T00:41:52;30.93;;;10.60;;
7398;SDS011;3740;50.700;7.184;2024-01-25T00:44:26;31.47;;;10.57;;
7398;SDS011;3740;50.700;7.184;2024-01-25T00:46:52;30.93;;;9.93;;
7398;SDS011;3740;50.700;7.184;2024-01-25T00:49:18;31.47;;;10.03;;
7398;SDS011;3740;50.700;7.184;2024-01-25T00:51:46;35.03;;;10.53;;
7398;SDS011;3740;50.700;7.184;2024-01-25T00:54:13;34.30;;;11.07;;
7398;SDS011;3740;50.700;7.184;2024-01-25T00:56:39;30.13;;;9.97;;
7398;SDS011;3740;50.700;7.184;2024-01-25T00:59:05;28.70;;;9.90;;
7398;SDS011;3740;50.700;7.184;2024-01-25T01:01:31;32.83;;;11.10;;
7398;SDS011;3740;50.700;7.184;2024-01-25T01:03:57;28.73;;;10.13;;
7398;SDS011;3740;50.700;7.184;2024-01-25T01:06:23;35.10;;;11.03;;
7398;SDS011;3740;50.700;7.184;2024-01-25T01:08:50;34.70;;;10.40;;
7398;SDS011;3740;50.700;7.184;2024-01-25T01:11:15;28.30;;;10.20;;
7398;SDS011;3740;50.700;7.184;2024-01-25T01:13:41;35.23;;;10.80;;
7398;SDS011;3740;50.700;7.184;2024-01-25T01:16:06;30.67;;;10.23;;
7398;SDS011;3740;50.700;7.184;2024-01-25T01:18:32;27.40;;;9.67;;
7398;SDS011;3740;50.700;7.184;2024-01-25T01:20:58;33.57;;;10.87;;
7398;SDS011;3740;50.700;7.184;2024-01-25T01:23:23;27.63;;;10.43;;
7398;SDS011;3740;50.700;7.184;2024-01-25T01:25:49;32.33;;;10.50;;
7398;SDS011;3740;50.700;7.184;2024-01-25T01:28:14;26.93;;;10.40;;
7398;SDS011;3740;50.700;7.184;2024-01-25T01:30:40;31.10;;;10.30;;
7398;SDS011;3740;50.700;7.184;2024-01-25T01:33:09;32.07;;;10.93;;
7398;SDS011;3740;50.700;7.184;2024-01-25T01:35:35;29.47;;;11.13;;
7398;SDS011;3740;50.700;7.184;2024-01-25T01:38:00;32.27;;;11.00;;
7398;SDS011;3740;50.700;7.184;2024-01-25T01:40:26;28.30;;;10.10;;
7398;SDS011;3740;50.700;7.184;2024-01-25T01:42:58;33.47;;;11.37;;
7398;SDS011;3740;50.700;7.184;2024-01-25T01:45:27;35.03;;;10.77;;
7398;SDS011;3740;50.700;7.184;2024-01-25T01:47:54;39.37;;;10.87;;
7398;SDS011;3740;50.700;7.184;2024-01-25T01:50:21;29.80;;;11.23;;
7398;SDS011;3740;50.700;7.184;2024-01-25T01:52:46;31.37;;;10.60;;
7398;SDS011;3740;50.700;7.184;2024-01-25T01:55:14;33.73;;;10.37;;
7398;SDS011;3740;50.700;7.184;2024-01-25T01:57:41;31.17;;;10.30;;
7398;SDS011;3740;50.700;7.184;2024-01-25T02:00:07;31.60;;;11.10;;
7398;SDS011;3740;50.700;7.184;2024-01-25T02:02:34;34.13;;;10.77;;
7398;SDS011;3740;50.700;7.184;2024-01-25T02:05:00;38.07;;;11.73;;
7398;SDS011;3740;50.700;7.184;2024-01-25T02:07:26;29.73;;;10.00;;
7398;SDS011;3740;50.700;7.184;2024-01-25T02:09:52;32.17;;;10.57;;
7398;SDS011;3740;50.700;7.184;2024-01-25T02:12:18;34.00;;;10.43;;
7398;SDS011;3740;50.700;7.184;2024-01-25T02:14:43;29.73;;;10.47;;
7398;SDS011;3740;50.700;7.184;2024-01-25T02:17:09;30.80;;;10.53;;
7398;SDS011;3740;50.700;7.184;2024-01-25T02:19:35;30.90;;;10.83;;
7398;SDS011;3740;50.700;7.184;2024-01-25T02:22:00;33.63;;;10.87;;
7398;SDS011;3740;50.700;7.184;2024-01-25T02:24:28;38.17;;;11.63;;
7398;SDS011;3740;50.700;7.184;2024-01-25T02:26:54;28.97;;;10.30;;
7398;SDS011;3740;50.700;7.184;2024-01-25T02:29:19;29.47;;;10.40;;
7398;SDS011;3740;50.700;7.184;2024-01-25T02:31:45;34.10;;;11.40;;
7398;SDS011;3740;50.700;7.184;2024-01-25T02:34:11;33.00;;;10.13;;
7398;SDS011;3740;50.700;7.184;2024-01-25T02:36:36;34.37;;;10.73;;
7398;SDS011;3740;50.700;7.184;2024-01-25T02:39:02;29.10;;;11.10;;
7398;SDS011;3740;50.700;7.184;2024-01-25T02:41:29;37.30;;;11.07;;
7398;SDS011;3740;50.700;7.184;2024-01-25T02:43:55;33.83;;;10.83;;
7398;SDS011;3740;50.700;7.184;2024-01-25T02:46:21;32.77;;;10.43;;
7398;SDS011;3740;50.700;7.184;2024-01-25T02:48:46;30.60;;;11.37;;
7398;SDS011;3740;50.700;7.184;2024-01-25T02:51:13;39.13;;;12.00;;
7398;SDS011;3740;50.700;7.184;2024-01-25T02:53:39;31.20;;;9.97;;
7398;SDS011;3740;50.700;7.184;2024-01-25T02:56:05;37.13;;;10.73;;
7398;SDS011;3740;50.700;7.184;2024-01-25T02:58:31;31.20;;;10.63;;
7398;SDS011;3740;50.700;7.184;2024-01-25T03:00:56;36.97;;;10.80;;
7398;SDS011;3740;50.700;7.184;2024-01-25T03:03:22;29.43;;;10.70;;
7398;SDS011;3740;50.700;7.184;2024-01-25T03:05:48;36.73;;;11.03;;
7398;SDS011;3740;50.700;7.184;2024-01-25T03:08:14;36.17;;;11.13;;
7398;SDS011;3740;50.700;7.184;2024-01-25T03:10:40;33.10;;;10.67;;
7398;SDS011;3740;50.700;7.184;2024-01-25T03:13:05;34.10;;;10.37;;
7398;SDS011;3740;50.700;7.184;2024-01-25T03:15:31;30.60;;;9.87;;
7398;SDS011;3740;50.700;7.184;2024-01-25T03:17:57;29.20;;;9.53;;
7398;SDS011;3740;50.700;7.184;2024-01-25T03:20:22;28.43;;;9.87;;
7398;SDS011;3740;50.700;7.184;2024-01-25T03:22:48;37.00;;;10.83;;
7398;SDS011;3740;50.700;7.184;2024-01-25T03:25:14;26.67;;;9.63;;
7398;SDS011;3740;50.700;7.184;2024-01-25T03:27:39;33.50;;;11.20;;
7398;SDS011;3740;50.700;7.184;2024-01-25T03:30:05;35.83;;;11.70;;
7398;SDS011;3740;50.700;7.184;2024-01-25T03:32:31;38.23;;;11.83;;
7398;SDS011;3740;50.700;7.184;2024-01-25T03:34:58;31.43;;;11.00;;
7398;SDS011;3740;50.700;7.184;2024-01-25T03:37:23;42.07;;;12.73;;
7398;SDS011;3740;50.700;7.184;2024-01-25T03:39:49;39.63;;;12.10;;
7398;SDS011;3740;50.700;7.184;2024-01-25T03:42:14;37.60;;;12.17;;
7398;SDS011;3740;50.700;7.184;2024-01-25T03:44:40;34.23;;;11.73;;
7398;SDS011;3740;50.700;7.184;2024-01-25T03:47:07;34.83;;;11.37;;
7398;SDS011;3740;50.700;7.184;2024-01-25T03:49:32;39.13;;;12.20;;
7398;SDS011;3740;50.700;7.184;2024-01-25T03:51:58;39.33;;;12.50;;
7398;SDS011;3740;50.700;7.184;2024-01-25T03:54:24;31.80;;;11.57;;
7398;SDS011;3740;50.700;7.184;2024-01-25T03:56:49;38.97;;;11.83;;
7398;SDS011;3740;50.700;7.184;2024-01-25T03:59:15;38.13;;;12.07;;
7398;SDS011;3740;50.700;7.184;2024-01-25T04:01:41;39.73;;;12.20;;
7398;SDS011;3740;50.700;7.184;2024-01-25T04:04:11;32.57;;;11.73;;
7398;SDS011;3740;50.700;7.184;2024-01-25T04:06:40;34.27;;;11.27;;
7398;SDS011;3740;50.700;7.184;2024-01-25T04:09:07;36.10;;;11.73;;
7398;SDS011;3740;50.700;7.184;2024-01-25T04:11:33;26.47;;;10.53;;
7398;SDS011;3740;50.700;7.184;2024-01-25T04:13:59;30.80;;;11.07;;
7398;SDS011;3740;50.700;7.184;2024-01-25T04:16:24;35.47;;;11.70;;
7398;SDS011;3740;50.700;7.184;2024-01-25T04:18:50;28.27;;;10.27;;
7398;SDS011;3740;50.700;7.184;2024-01-25T04:21:16;33.73;;;11.37;;
7398;SDS011;3740;50.700;7.184;2024-01-25T04:23:41;27.90;;;10.23;;
7398;SDS011;3740;50.700;7.184;2024-01-25T04:26:07;31.53;;;11.60;;
7398;SDS011;3740;50.700;7.184;2024-01-25T04:28:32;36.07;;;11.10;;
7398;SDS011;3740;50.700;7.184;2024-01-25T04:30:58;34.33;;;11.10;;
7398;SDS011;3740;50.700;7.184;2024-01-25T04:33:24;32.90;;;12.23;;
7398;SDS011;3740;50.700;7.184;2024-01-25T04:35:49;31.07;;;10.87;;
7398;SDS011;3740;50.700;7.184;2024-01-25T04:38:15;38.27;;;12.40;;
7398;SDS011;3740;50.700;7.184;2024-01-25T04:40:40;32.10;;;11.33;;
7398;SDS011;3740;50.700;7.184;2024-01-25T04:43:06;35.33;;;12.53;;
7398;SDS011;3740;50.700;7.184;2024-01-25T04:45:31;38.47;;;12.80;;
7398;SDS011;3740;50.700;7.184;2024-01-25T04:47:57;31.03;;;11.03;;
7398;SDS011;3740;50.700;7.184;2024-01-25T04:50:22;39.40;;;13.13;;
7398;SDS011;3740;50.700;7.184;2024-01-25T04:52:48;33.33;;;12.73;;
7398;SDS011;3740;50.700;7.184;2024-01-25T04:55:14;38.50;;;11.60;;
7398;SDS011;3740;50.700;7.184;2024-01-25T04:57:39;33.47;;;11.37;;
7398;SDS011;3740;50.700;7.184;2024-01-25T05:00:05;37.03;;;12.70;;
7398;SDS011;3740;50.700;7.184;2024-01-25T05:02:31;38.13;;;13.27;;
7398;SDS011;3740;50.700;7.184;2024-01-25T05:04:57;33.40;;;11.37;;
7398;SDS011;3740;50.700;7.184;2024-01-25T05:07:22;37.47;;;12.57;;
7398;SDS011;3740;50.700;7.184;2024-01-25T05:09:48;29.97;;;12.03;;
7398;SDS011;3740;50.700;7.184;2024-01-25T05:12:13;32.13;;;12.73;;
7398;SDS011;3740;50.700;7.184;2024-01-25T05:14:39;38.87;;;12.53;;
7398;SDS011;3740;50.700;7.184;2024-01-25T05:17:04;31.60;;;10.70;;
7398;SDS011;3740;50.700;7.184;2024-01-25T05:19:30;32.37;;;11.90;;
7398;SDS011;3740;50.700;7.184;2024-01-25T05:21:56;30.27;;;11.17;;
7398;SDS011;3740;50.700;7.184;2024-01-25T05:24:21;36.13;;;12.07;;
7398;SDS011;3740;50.700;7.184;2024-01-25T05:26:47;39.37;;;13.17;;
7398;SDS011;3740;50.700;7.184;2024-01-25T05:29:13;34.23;;;12.17;;
7398;SDS011;3740;50.700;7.184;2024-01-25T05:31:38;30.33;;;11.60;;
7398;SDS011;3740;50.700;7.184;2024-01-25T05:34:04;28.40;;;10.43;;
7398;SDS011;3740;50.700;7.184;2024-01-25T05:36:29;32.93;;;11.80;;
7398;SDS011;3740;50.700;7.184;2024-01-25T05:38:55;29.03;;;11.50;;
7398;SDS011;3740;50.700;7.184;2024-01-25T05:41:20;29.20;;;10.07;;
7398;SDS011;3740;50.700;7.184;2024-01-25T05:43:46;35.07;;;11.47;;
7398;SDS011;3740;50.700;7.184;2024-01-25T05:46:11;26.90;;;11.33;;
7398;SDS011;3740;50.700;7.184;2024-01-25T05:48:37;25.73;;;10.47;;
7398;SDS011;3740;50.700;7.184;2024-01-25T05:51:02;29.50;;;10.60;;
7398;SDS011;3740;50.700;7.184;2024-01-25T05:53:28;28.10;;;10.87;;
7398;SDS011;3740;50.700;7.184;2024-01-25T05:55:53;31.97;;;11.20;;
7398;SDS011;3740;50.700;7.184;2024-01-25T05:58:19;28.13;;;11.13;;
7398;SDS011;3740;50.700;7.184;2024-01-25T06:00:45;30.03;;;11.10;;
7398;SDS011;3740;50.700;7.184;2024-01-25T06:03:10;31.63;;;11.03;;
7398;SDS011;3740;50.700;7.184;2024-01-25T06:05:36;24.23;;;9.93;;
7398;SDS011;3740;50.700;7.184;2024-01-25T06:08:01;30.97;;;11.37;;
7398;SDS011;3740;50.700;7.184;2024-01-25T06:10:27;26.63;;;10.57;;
7398;SDS011;3740;50.700;7.184;2024-01-25T06:12:52;26.97;;;10.77;;
7398;SDS011;3740;50.700;7.184;2024-01-25T06:15:18;27.80;;;11.00;;
7398;SDS011;3740;50.700;7.184;2024-01-25T06:17:43;23.13;;;9.83;;
7398;SDS011;3740;50.700;7.184;2024-01-25T06:20:09;25.83;;;9.47;;
7398;SDS011;3740;50.700;7.184;2024-01-25T06:22:35;25.67;;;10.70;;
7398;SDS011;3740;50.700;7.184;2024-01-25T06:25:01;28.50;;;10.23;;
7398;SDS011;3740;50.700;7.184;2024-01-25T06:27:28;26.03;;;10.33;;
7398;SDS011;3740;50.700;7.184;2024-01-25T06:29:54;24.77;;;10.37;;
7398;SDS011;3740;50.700;7.184;2024-01-25T06:32:19;27.70;;;11.53;;
7398;SDS011;3740;50.700;7.184;2024-01-25T06:34:45;33.97;;;16.13;;
7398;SDS011;3740;50.700;7.184;2024-01-25T06:37:11;23.23;;;9.73;;
7398;SDS011;3740;50.700;7.184;2024-01-25T06:39:40;29.27;;;9.97;;
7398;SDS011;3740;50.700;7.184;2024-01-25T06:42:05;23.00;;;9.47;;
7398;SDS011;3740;50.700;7.184;2024-01-25T06:44:31;23.77;;;9.87;;
7398;SDS011;3740;50.700;7.184;2024-01-25T06:46:56;24.73;;;10.40;;
7398;SDS011;3740;50.700;7.184;2024-01-25T06:49:22;27.97;;;10.63;;
7398;SDS011;3740;50.700;7.184;2024-01-25T06:51:47;26.23;;;11.30;;
7398;SDS011;3740;50.700;7.184;2024-01-25T06:54:13;23.87;;;10.30;;
7398;SDS011;3740;50.700;7.184;2024-01-25T06:56:39;26.47;;;9.70;;
7398;SDS011;3740;50.700;7.184;2024-01-25T06:59:04;27.70;;;10.90;;
7398;SDS011;3740;50.700;7.184;2024-01-25T07:01:30;25.63;;;10.33;;
7398;SDS011;3740;50.700;7.184;2024-01-25T07:03:56;26.30;;;10.97;;
7398;SDS011;3740;50.700;7.184;2024-01-25T07:06:21;21.63;;;10.10;;
7398;SDS011;3740;50.700;7.184;2024-01-25T07:08:47;24.90;;;9.87;;
7398;SDS011;3740;50.700;7.184;2024-01-25T07:11:12;25.37;;;10.43;;
7398;SDS011;3740;50.700;7.184;2024-01-25T07:13:38;25.33;;;10.77;;
7398;SDS011;3740;50.700;7.184;2024-01-25T07:16:05;22.00;;;9.93;;
7398;SDS011;3740;50.700;7.184;2024-01-25T07:18:31;27.23;;;10.50;;
7398;SDS011;3740;50.700;7.184;2024-01-25T07:20:57;23.97;;;9.43;;
7398;SDS011;3740;50.700;7.184;2024-01-25T07:23:22;28.47;;;10.67;;
7398;SDS011;3740;50.700;7.184;2024-01-25T07:25:48;24.17;;;10.30;;
7398;SDS011;3740;50.700;7.184;2024-01-25T07:28:13;18.90;;;9.33;;
7398;SDS011;3740;50.700;7.184;2024-01-25T07:30:39;23.83;;;10.40;;
7398;SDS011;3740;50.700;7.184;2024-01-25T07:33:04;27.03;;;11.27;;
7398;SDS011;3740;50.700;7.184;2024-01-25T07:35:31;23.50;;;10.43;;
7398;SDS011;3740;50.700;7.184;2024-01-25T07:37:57;26.60;;;11.33;;
7398;SDS011;3740;50.700;7.184;2024-01-25T07:40:22;26.30;;;11.73;;
7398;SDS011;3740;50.700;7.184;2024-01-25T07:42:48;27.87;;;11.87;;
7398;SDS011;3740;50.700;7.184;2024-01-25T07:45:13;26.13;;;11.47;;
7398;SDS011;3740;50.700;7.184;2024-01-25T07:47:42;31.63;;;11.83;;
7398;SDS011;3740;50.700;7.184;2024-01-25T07:50:09;30.70;;;11.97;;
7398;SDS011;3740;50.700;7.184;2024-01-25T07:52:35;25.00;;;10.43;;
7398;SDS011;3740;50.700;7.184;2024-01-25T07:55:00;25.27;;;10.53;;
7398;SDS011;3740;50.700;7.184;2024-01-25T07:57:26;24.93;;;10.87;;
7398;SDS011;3740;50.700;7.184;2024-01-25T07:59:51;27.77;;;10.47;;
7398;SDS011;3740;50.700;7.184;2024-01-25T08:02:17;29.73;;;11.57;;
7398;SDS011;3740;50.700;7.184;2024-01-25T08:04:44;23.07;;;10.20;;
7398;SDS011;3740;50.700;7.184;2024-01-25T08:07:09;28.07;;;11.50;;
7398;SDS011;3740;50.700;7.184;2024-01-25T08:09:35;26.60;;;11.73;;
7398;SDS011;3740;50.700;7.184;2024-01-25T08:12:01;33.60;;;13.13;;
7398;SDS011;3740;50.700;7.184;2024-01-25T08:14:26;25.03;;;12.17;;
7398;SDS011;3740;50.700;7.184;2024-01-25T08:16:52;24.07;;;11.37;;
7398;SDS011;3740;50.700;7.184;2024-01-25T08:19:17;24.53;;;11.37;;
7398;SDS011;3740;50.700;7.184;2024-01-25T08:21:44;22.20;;;11.10;;
7398;SDS011;3740;50.700;7.184;2024-01-25T08:24:10;26.60;;;11.10;;
7398;SDS011;3740;50.700;7.184;2024-01-25T08:26:36;25.07;;;11.03;;
7398;SDS011;3740;50.700;7.184;2024-01-25T08:29:02;17.13;;;9.83;;
7398;SDS011;3740;50.700;7.184;2024-01-25T08:31:27;20.90;;;10.73;;
7398;SDS011;3740;50.700;7.184;2024-01-25T08:33:53;26.33;;;11.73;;
7398;SDS011;3740;50.700;7.184;2024-01-25T08:36:19;20.83;;;10.23;;
7398;SDS011;3740;50.700;7.184;2024-01-25T08:38:44;22.70;;;10.17;;
7398;SDS011;3740;50.700;7.184;2024-01-25T08:41:10;21.93;;;10.03;;
7398;SDS011;3740;50.700;7.184;2024-01-25T08:43:36;22.27;;;10.50;;
7398;SDS011;3740;50.700;7.184;2024-01-25T08:46:02;23.30;;;11.80;;
7398;SDS011;3740;50.700;7.184;2024-01-25T08:48:28;23.33;;;11.20;;
7398;SDS011;3740;50.700;7.184;2024-01-25T08:50:53;28.13;;;12.13;;
7398;SDS011;3740;50.700;7.184;2024-01-25T08:53:19;24.57;;;11.97;;
7398;SDS011;3740;50.700;7.184;2024-01-25T08:55:52;24.33;;;10.67;;
7398;SDS011;3740;50.700;7.184;2024-01-25T08:58:21;21.73;;;12.17;;
7398;SDS011;3740;50.700;7.184;2024-01-25T09:00:47;24.70;;;11.83;;
7398;SDS011;3740;50.700;7.184;2024-01-25T09:03:14;26.03;;;11.90;;
7398;SDS011;3740;50.700;7.184;2024-01-25T09:05:40;24.23;;;12.03;;
7398;SDS011;3740;50.700;7.184;2024-01-25T09:08:09;27.00;;;12.53;;
7398;SDS011;3740;50.700;7.184;2024-01-25T09:10:39;20.47;;;10.87;;
7398;SDS011;3740;50.700;7.184;2024-01-25T09:13:05;27.13;;;11.77;;
7398;SDS011;3740;50.700;7.184;2024-01-25T09:15:31;23.47;;;11.17;;
7398;SDS011;3740;50.700;7.184;2024-01-25T09:17:57;26.97;;;10.70;;
7398;SDS011;3740;50.700;7.184;2024-01-25T09:20:22;22.33;;;10.43;;
7398;SDS011;3740;50.700;7.184;2024-01-25T09:22:48;22.00;;;10.23;;
7398;SDS011;3740;50.700;7.184;2024-01-25T09:25:13;27.93;;;10.83;;
7398;SDS011;3740;50.700;7.184;2024-01-25T09:27:39;24.83;;;10.40;;
7398;SDS011;3740;50.700;7.184;2024-01-25T09:30:05;24.27;;;9.57;;
7398;SDS011;3740;50.700;7.184;2024-01-25T09:32:31;23.53;;;9.47;;
7398;SDS011;3740;50.700;7.184;2024-01-25T09:34:56;26.30;;;10.40;;
7398;SDS011;3740;50.700;7.184;2024-01-25T09:37:22;25.03;;;9.37;;
7398;SDS011;3740;50.700;7.184;2024-01-25T09:39:49;21.87;;;9.07;;
7398;SDS011;3740;50.700;7.184;2024-01-25T09:42:16;27.33;;;9.70;;
7398;SDS011;3740;50.700;7.184;2024-01-25T09:44:43;21.03;;;9.23;;
7398;SDS011;3740;50.700;7.184;2024-01-25T09:47:09;25.73;;;10.43;;
7398;SDS011;3740;50.700;7.184;2024-01-25T09:49:35;23.07;;;8.87;;
7398;SDS011;3740;50.700;7.184;2024-01-25T09:52:04;24.10;;;9.40;;
7398;SDS011;3740;50.700;7.184;2024-01-25T09:54:33;26.27;;;9.70;;
7398;SDS011;3740;50.700;7.184;2024-01-25T09:57:00;26.70;;;9.73;;
7398;SDS011;3740;50.700;7.184;2024-01-25T09:59:31;24.57;;;9.43;;
7398;SDS011;3740;50.700;7.184;2024-01-25T10:01:56;23.33;;;9.33;;
7398;SDS011;3740;50.700;7.184;2024-01-25T10:04:24;23.00;;;9.20;;
7398;SDS011;3740;50.700;7.184;2024-01-25T10:06:50;22.77;;;8.70;;
7398;SDS011;3740;50.700;7.184;2024-01-25T10:09:15;27.67;;;9.83;;
7398;SDS011;3740;50.700;7.184;2024-01-25T10:11:42;27.43;;;9.13;;
7398;SDS011;3740;50.700;7.184;2024-01-25T10:14:07;27.10;;;9.83;;
7398;SDS011;3740;50.700;7.184;2024-01-25T10:16:33;22.10;;;8.97;;
7398;SDS011;3740;50.700;7.184;2024-01-25T10:19:00;17.30;;;7.70;;
7398;SDS011;3740;50.700;7.184;2024-01-25T10:21:27;24.37;;;9.27;;
7398;SDS011;3740;50.700;7.184;2024-01-25T10:23:55;20.10;;;8.07;;
7398;SDS011;3740;50.700;7.184;2024-01-25T10:26:25;19.50;;;8.07;;
7398;SDS011;3740;50.700;7.184;2024-01-25T10:28:54;22.93;;;8.47;;
7398;SDS011;3740;50.700;7.184;2024-01-25T10:31:22;21.38;;;8.02;;
7398;SDS011;3740;50.700;7.184;2024-01-25T10:33:50;15.43;;;7.13;;
7398;SDS011;3740;50.700;7.184;2024-01-25T10:36:18;15.27;;;7.25;;
7398;SDS011;3740;50.700;7.184;2024-01-25T10:38:49;18.05;;;7.63;;
7398;SDS011;3740;50.700;7.184;2024-01-25T10:41:15;17.90;;;7.03;;
7398;SDS011;3740;50.700;7.184;2024-01-25T10:43:42;20.13;;;8.13;;
7398;SDS011;3740;50.700;7.184;2024-01-25T10:46:07;19.83;;;6.90;;
7398;SDS011;3740;50.700;7.184;2024-01-25T10:48:34;20.05;;;8.23;;
7398;SDS011;3740;50.700;7.184;2024-01-25T10:50:59;17.92;;;7.22;;
7398;SDS011;3740;50.700;7.184;2024-01-25T10:53:29;22.08;;;8.80;;
7398;SDS011;3740;50.700;7.184;2024-01-25T10:55:57;19.00;;;7.82;;
7398;SDS011;3740;50.700;7.184;2024-01-25T10:58:23;21.02;;;7.78;;
7398;SDS011;3740;50.700;7.184;2024-01-25T11:00:50;18.38;;;7.05;;
7398;SDS011;3740;50.700;7.184;2024-01-25T11:03:29;18.42;;;7.13;;
7398;SDS011;3740;50.700;7.184;2024-01-25T11:06:07;17.00;;;7.38;;
7398;SDS011;3740;50.700;7.184;2024-01-25T11:08:37;17.70;;;7.35;;
7398;SDS011;3740;50.700;7.184;2024-01-25T11:11:10;14.85;;;6.75;;
7398;SDS011;3740;50.700;7.184;2024-01-25T11:13:38;20.95;;;7.75;;
7398;SDS011;3740;50.700;7.184;2024-01-25T11:16:15;15.32;;;6.90;;
7398;SDS011;3740;50.700;7.184;2024-01-25T11:18:53;20.48;;;6.93;;
7398;SDS011;3740;50.700;7.184;2024-01-25T11:24:15;20.85;;;7.03;;
7398;SDS011;3740;50.700;7.184;2024-01-25T11:26:44;19.10;;;6.82;;
7398;SDS011;3740;50.700;7.184;2024-01-25T11:29:14;18.88;;;7.13;;
7398;SDS011;3740;50.700;7.184;2024-01-25T11:31:41;18.35;;;7.18;;
7398;SDS011;3740;50.700;7.184;2024-01-25T11:34:09;22.73;;;8.10;;
7398;SDS011;3740;50.700;7.184;2024-01-25T11:36:36;23.45;;;7.20;;
7398;SDS011;3740;50.700;7.184;2024-01-25T11:39:01;20.50;;;7.95;;
7398;SDS011;3740;50.700;7.184;2024-01-25T11:41:27;18.08;;;7.13;;
7398;SDS011;3740;50.700;7.184;2024-01-25T11:43:53;16.17;;;6.82;;
7398;SDS011;3740;50.700;7.184;2024-01-25T11:46:19;18.27;;;6.82;;
7398;SDS011;3740;50.700;7.184;2024-01-25T11:48:46;14.75;;;6.15;;
7398;SDS011;3740;50.700;7.184;2024-01-25T11:51:12;15.00;;;6.45;;
7398;SDS011;3740;50.700;7.184;2024-01-25T11:53:37;12.93;;;6.20;;
7398;SDS011;3740;50.700;7.184;2024-01-25T11:56:04;14.50;;;6.35;;
7398;SDS011;3740;50.700;7.184;2024-01-25T11:58:33;13.68;;;6.22;;
7398;SDS011;3740;50.700;7.184;2024-01-25T12:00:59;16.83;;;6.15;;
7398;SDS011;3740;50.700;7.184;2024-01-25T12:03:26;14.30;;;6.40;;
7398;SDS011;3740;50.700;7.184;2024-01-25T12:05:52;12.95;;;5.88;;
7398;SDS011;3740;50.700;7.184;2024-01-25T12:08:17;17.88;;;6.43;;
7398;SDS011;3740;50.700;7.184;2024-01-25T12:10:43;17.55;;;6.68;;
7398;SDS011;3740;50.700;7.184;2024-01-25T12:13:09;17.77;;;6.53;;
7398;SDS011;3740;50.700;7.184;2024-01-25T12:15:35;15.70;;;6.50;;
7398;SDS011;3740;50.700;7.184;2024-01-25T12:18:01;15.63;;;7.00;;
7398;SDS011;3740;50.700;7.184;2024-01-25T12:20:27;23.67;;;7.37;;
7398;SDS011;3740;50.700;7.184;2024-01-25T12:22:53;16.53;;;7.13;;
7398;SDS011;3740;50.700;7.184;2024-01-25T12:25:19;15.23;;;6.27;;
7398;SDS011;3740;50.700;7.184;2024-01-25T12:27:45;13.97;;;6.17;;
7398;SDS011;3740;50.700;7.184;2024-01-25T12:30:14;19.43;;;6.93;;
7398;SDS011;3740;50.700;7.184;2024-01-25T12:32:40;17.77;;;6.80;;
7398;SDS011;3740;50.700;7.184;2024-01-25T12:35:06;20.57;;;6.63;;
7398;SDS011;3740;50.700;7.184;2024-01-25T12:37:33;18.23;;;7.17;;
7398;SDS011;3740;50.700;7.184;2024-01-25T12:39:59;27.43;;;8.87;;
7398;SDS011;3740;50.700;7.184;2024-01-25T12:42:24;21.40;;;7.20;;
7398;SDS011;3740;50.700;7.184;2024-01-25T12:44:51;17.90;;;6.50;;
7398;SDS011;3740;50.700;7.184;2024-01-25T12:47:21;17.80;;;7.37;;
7398;SDS011;3740;50.700;7.184;2024-01-25T12:49:47;20.40;;;7.43;;
7398;SDS011;3740;50.700;7.184;2024-01-25T12:52:13;19.20;;;7.53;;
7398;SDS011;3740;50.700;7.184;2024-01-25T12:54:40;33.20;;;8.67;;
7398;SDS011;3740;50.700;7.184;2024-01-25T12:57:06;19.30;;;6.73;;
7398;SDS011;3740;50.700;7.184;2024-01-25T12:59:33;15.60;;;6.80;;
7398;SDS011;3740;50.700;7.184;2024-01-25T13:01:59;21.10;;;6.77;;
7398;SDS011;3740;50.700;7.184;2024-01-25T13:04:25;17.63;;;7.10;;
7398;SDS011;3740;50.700;7.184;2024-01-25T13:06:54;18.70;;;6.47;;
7398;SDS011;3740;50.700;7.184;2024-01-25T13:09:21;20.77;;;7.37;;
7398;SDS011;3740;50.700;7.184;2024-01-25T13:11:47;14.03;;;5.73;;
7398;SDS011;3740;50.700;7.184;2024-01-25T13:14:13;20.10;;;7.10;;
7398;SDS011;3740;50.700;7.184;2024-01-25T13:16:38;25.53;;;7.27;;
7398;SDS011;3740;50.700;7.184;2024-01-25T13:19:04;12.50;;;5.97;;
7398;SDS011;3740;50.700;7.184;2024-01-25T13:21:30;11.87;;;6.23;;
7398;SDS011;3740;50.700;7.184;2024-01-25T13:23:56;18.80;;;6.30;;
7398;SDS011;3740;50.700;7.184;2024-01-25T13:26:22;15.03;;;6.00;;
7398;SDS011;3740;50.700;7.184;2024-01-25T13:28:47;10.50;;;5.37;;
7398;SDS011;3740;50.700;7.184;2024-01-25T13:31:13;14.07;;;6.23;;
7398;SDS011;3740;50.700;7.184;2024-01-25T13:33:38;14.50;;;6.30;;
7398;SDS011;3740;50.700;7.184;2024-01-25T13:36:04;15.23;;;6.20;;
7398;SDS011;3740;50.700;7.184;2024-01-25T13:38:33;12.53;;;5.87;;
7398;SDS011;3740;50.700;7.184;2024-01-25T13:40:59;16.43;;;6.77;;
7398;SDS011;3740;50.700;7.184;2024-01-25T13:43:25;13.97;;;5.93;;
7398;SDS011;3740;50.700;7.184;2024-01-25T13:45:51;15.53;;;6.23;;
7398;SDS011;3740;50.700;7.184;2024-01-25T13:48:16;18.47;;;6.97;;
7398;SDS011;3740;50.700;7.184;2024-01-25T13:50:43;15.70;;;6.90;;
7398;SDS011;3740;50.700;7.184;2024-01-25T13:53:09;16.27;;;6.33;;
7398;SDS011;3740;50.700;7.184;2024-01-25T13:55:35;15.67;;;6.67;;
7398;SDS011;3740;50.700;7.184;2024-01-25T13:58:01;13.17;;;6.47;;
7398;SDS011;3740;50.700;7.184;2024-01-25T14:00:26;13.63;;;6.37;;
7398;SDS011;3740;50.700;7.184;2024-01-25T14:02:52;14.77;;;6.13;;
7398;SDS011;3740;50.700;7.184;2024-01-25T14:05:18;11.47;;;5.93;;
7398;SDS011;3740;50.700;7.184;2024-01-25T14:07:43;14.00;;;6.23;;
7398;SDS011;3740;50.700;7.184;2024-01-25T14:10:09;16.83;;;6.90;;
7398;SDS011;3740;50.700;7.184;2024-01-25T14:12:35;16.53;;;6.67;;
7398;SDS011;3740;50.700;7.184;2024-01-25T14:15:00;20.77;;;6.90;;
7398;SDS011;3740;50.700;7.184;2024-01-25T14:17:26;22.70;;;7.50;;
7398;SDS011;3740;50.700;7.184;2024-01-25T14:19:53;18.03;;;7.30;;
7398;SDS011;3740;50.700;7.184;2024-01-25T14:22:19;15.63;;;6.80;;
7398;SDS011;3740;50.700;7.184;2024-01-25T14:24:44;16.10;;;6.57;;
7398;SDS011;3740;50.700;7.184;2024-01-25T14:27:11;14.63;;;6.70;;
7398;SDS011;3740;50.700;7.184;2024-01-25T14:29:36;19.07;;;7.70;;
7398;SDS011;3740;50.700;7.184;2024-01-25T14:32:02;15.77;;;6.63;;
7398;SDS011;3740;50.700;7.184;2024-01-25T14:34:28;16.77;;;7.23;;
7398;SDS011;3740;50.700;7.184;2024-01-25T14:36:53;16.77;;;7.23;;
7398;SDS011;3740;50.700;7.184;2024-01-25T14:39:19;19.53;;;6.70;;
7398;SDS011;3740;50.700;7.184;2024-01-25T14:41:44;17.23;;;6.80;;
7398;SDS011;3740;50.700;7.184;2024-01-25T14:44:10;17.13;;;7.00;;
7398;SDS011;3740;50.700;7.184;2024-01-25T14:46:36;19.20;;;7.37;;
7398;SDS011;3740;50.700;7.184;2024-01-25T14:49:02;16.37;;;6.83;;